createdAt,value
2023-02-14T00:02:00.060Z,93.60
2023-02-14T00:04:29.810Z,93.60
2023-02-14T00:06:58.180Z,93.50
2023-02-14T00:09:26.527Z,93.80
2023-02-14T00:12:00.309Z,93.60
2023-02-14T00:14:46.131Z,93.60
2023-02-14T00:17:14.471Z,93.30
2023-02-14T00:19:45.259Z,93.60
2023-02-14T00:22:13.568Z,93.60
2023-02-14T00:24:41.921Z,93.40
2023-02-14T00:27:13.006Z,93.60
2023-02-14T00:29:41.309Z,93.50
2023-02-14T00:32:09.663Z,93.40
2023-02-14T00:34:38.051Z,93.70
2023-02-14T00:37:10.615Z,93.60
2023-02-14T00:39:41.663Z,93.60
2023-02-14T00:42:10.098Z,93.50
2023-02-14T00:44:38.981Z,93.50
2023-02-14T00:47:07.416Z,93.50
2023-02-14T00:49:39.417Z,93.60
2023-02-14T00:52:07.726Z,93.60
2023-02-14T00:54:37.422Z,93.90
2023-02-14T00:57:05.868Z,93.70
2023-02-14T00:59:35.425Z,93.70
2023-02-14T01:02:03.720Z,93.60
2023-02-14T01:04:32.060Z,93.70
2023-02-14T01:07:00.369Z,93.60
2023-02-14T01:09:28.724Z,93.40
2023-02-14T01:11:58.530Z,93.50
2023-02-14T01:14:26.926Z,93.60
2023-02-14T01:16:55.388Z,93.60
2023-02-14T01:19:23.698Z,93.70
2023-02-14T01:21:56.567Z,93.60
2023-02-14T01:24:26.608Z,93.80
2023-02-14T01:26:54.956Z,93.60
2023-02-14T01:29:24.607Z,93.70
2023-02-14T01:31:55.791Z,93.70
2023-02-14T01:34:26.948Z,93.70
2023-02-14T01:36:55.420Z,93.80
2023-02-14T01:39:23.730Z,93.80
2023-02-14T01:41:53.931Z,93.60
2023-02-14T01:45:02.117Z,93.60
2023-02-14T01:47:32.140Z,93.60
2023-02-14T01:50:02.382Z,93.80
2023-02-14T01:52:38.611Z,93.70
2023-02-14T01:55:08.348Z,93.70
2023-02-14T01:57:38.184Z,93.90
2023-02-14T02:00:28.896Z,93.60
2023-02-14T02:02:57.339Z,93.90
2023-02-14T02:05:25.707Z,93.70
2023-02-14T02:07:54.140Z,93.80
2023-02-14T02:10:22.541Z,93.70
2023-02-14T02:12:50.844Z,93.70
2023-02-14T02:15:20.748Z,93.80
2023-02-14T02:17:53.025Z,93.60
2023-02-14T02:20:54.428Z,93.80
2023-02-14T02:23:32.949Z,93.90
2023-02-14T02:26:37.693Z,93.80
2023-02-14T02:29:19.531Z,93.70
2023-02-14T02:32:41.636Z,93.90
2023-02-14T02:35:50.425Z,93.60
2023-02-14T02:38:29.822Z,93.70
2023-02-14T02:41:08.057Z,93.70
2023-02-14T02:43:41.978Z,93.70
2023-02-14T02:46:32.389Z,93.60
2023-02-14T02:49:03.261Z,93.90
2023-02-14T02:51:53.787Z,93.50
2023-02-14T02:54:26.665Z,93.70
2023-02-14T02:56:56.020Z,93.60
2023-02-14T02:59:25.337Z,93.60
2023-02-14T03:01:57.413Z,93.80
2023-02-14T03:04:43.259Z,93.80
2023-02-14T03:07:30.797Z,93.80
2023-02-14T03:10:00.245Z,93.80
2023-02-14T03:12:53.635Z,93.60
2023-02-14T03:15:23.883Z,93.70
2023-02-14T03:17:57.619Z,93.80
2023-02-14T03:20:27.956Z,93.70
2023-02-14T03:22:59.581Z,93.70
2023-02-14T03:25:33.212Z,93.70
2023-02-14T03:28:05.724Z,93.80
2023-02-14T03:30:40.349Z,93.80
2023-02-14T03:33:11.853Z,93.80
2023-02-14T03:35:45.514Z,93.60
2023-02-14T03:38:16.222Z,93.80
2023-02-14T03:40:47.065Z,93.80
2023-02-14T03:43:16.610Z,93.80
2023-02-14T03:45:47.075Z,93.90
2023-02-14T03:48:16.023Z,93.80
2023-02-14T03:50:45.370Z,93.90
2023-02-14T03:53:15.693Z,94.00
2023-02-14T03:55:45.895Z,94.00
2023-02-14T03:58:17.184Z,93.90
2023-02-14T04:00:45.591Z,93.90
2023-02-14T04:03:14.562Z,93.80
2023-02-14T04:05:46.599Z,93.80
2023-02-14T04:08:21.254Z,93.70
2023-02-14T04:10:49.693Z,93.80
2023-02-14T04:13:18.004Z,93.80
2023-02-14T04:15:46.386Z,93.70
2023-02-14T04:18:32.183Z,93.60
2023-02-14T04:21:00.901Z,93.80
2023-02-14T04:23:30.808Z,93.80
2023-02-14T04:25:59.123Z,93.50
2023-02-14T04:28:27.484Z,93.70
2023-02-14T04:30:55.906Z,93.70
2023-02-14T04:33:24.296Z,93.60
2023-02-14T04:35:52.684Z,93.70
2023-02-14T04:38:21.028Z,94.00
2023-02-14T04:40:51.047Z,93.60
2023-02-14T04:43:19.396Z,93.60
2023-02-14T04:45:48.267Z,93.80
2023-02-14T04:48:16.571Z,93.30
2023-02-14T04:50:48.618Z,93.70
2023-02-14T04:53:19.249Z,93.60
2023-02-14T04:55:50.712Z,93.40
2023-02-14T04:58:19.017Z,93.60
2023-02-14T05:00:47.436Z,93.70
2023-02-14T05:03:15.757Z,93.70
2023-02-14T05:05:44.107Z,93.70
2023-02-14T05:08:12.472Z,93.70
2023-02-14T05:10:40.826Z,93.60
2023-02-14T05:13:10.506Z,93.60
2023-02-14T05:15:38.862Z,93.70
2023-02-14T05:18:07.258Z,93.30
2023-02-14T05:20:35.610Z,93.30
2023-02-14T05:23:05.168Z,93.40
2023-02-14T05:25:33.550Z,93.40
2023-02-14T05:28:01.885Z,93.60
2023-02-14T05:30:31.712Z,93.50
2023-02-14T05:33:00.133Z,93.70
2023-02-14T05:35:28.638Z,93.40
2023-02-14T05:37:56.944Z,93.60
2023-02-14T05:42:53.125Z,93.50
2023-02-14T05:45:21.540Z,93.60
2023-02-14T05:47:51.372Z,93.80
2023-02-14T05:50:20.105Z,93.60
2023-02-14T05:52:48.413Z,93.80
2023-02-14T05:55:16.794Z,94.20
2023-02-14T05:57:45.188Z,93.80
2023-02-14T06:00:14.869Z,93.80
2023-02-14T06:02:43.295Z,93.80
2023-02-14T06:05:12.980Z,93.80
2023-02-14T06:07:43.156Z,93.90
2023-02-14T06:10:12.719Z,93.80
2023-02-14T06:12:41.020Z,93.70
2023-02-14T06:15:09.576Z,93.80
2023-02-14T06:17:37.880Z,94.10
2023-02-14T06:20:07.512Z,94.10
2023-02-14T06:22:37.285Z,94.00
2023-02-14T06:25:06.272Z,94.10
2023-02-14T06:27:34.571Z,94.00
2023-02-14T06:30:02.932Z,94.00
2023-02-14T06:32:31.254Z,93.80
2023-02-14T06:34:59.668Z,93.90
2023-02-14T06:37:27.967Z,94.10
2023-02-14T06:39:57.685Z,94.00
2023-02-14T06:42:26.159Z,94.20
2023-02-14T06:44:54.532Z,93.70
2023-02-14T06:47:22.829Z,93.80
2023-02-14T06:49:51.187Z,94.00
2023-02-14T06:52:19.523Z,93.70
2023-02-14T06:54:47.851Z,93.80
2023-02-14T06:57:17.492Z,94.10
2023-02-14T06:59:45.852Z,93.70
2023-02-14T07:02:14.251Z,93.90
2023-02-14T07:04:42.574Z,93.70
2023-02-14T07:07:10.882Z,93.70
2023-02-14T07:09:39.300Z,93.60
2023-02-14T07:12:08.037Z,93.60
2023-02-14T07:14:37.784Z,93.50
2023-02-14T07:17:06.228Z,93.30
2023-02-14T07:19:34.564Z,93.50
2023-02-14T07:22:02.911Z,93.30
2023-02-14T07:24:31.257Z,93.40
2023-02-14T07:26:59.710Z,93.30
2023-02-14T07:29:28.171Z,93.50
2023-02-14T07:31:57.991Z,93.30
2023-02-14T07:34:27.243Z,93.70
2023-02-14T07:36:55.704Z,93.80
2023-02-14T07:39:24.097Z,93.50
2023-02-14T07:41:52.443Z,93.10
2023-02-14T07:44:20.870Z,93.00
2023-02-14T07:46:49.229Z,93.10
2023-02-14T07:49:18.920Z,92.90
2023-02-14T07:51:47.288Z,93.00
2023-02-14T07:54:15.610Z,92.90
2023-02-14T07:56:43.917Z,92.80
2023-02-14T07:59:12.273Z,93.00
2023-02-14T08:01:40.635Z,92.70
2023-02-14T08:04:09.050Z,92.80
2023-02-14T08:06:38.763Z,92.70
2023-02-14T08:09:07.161Z,92.60
2023-02-14T08:11:53.233Z,92.90
2023-02-14T08:14:21.768Z,92.90
2023-02-14T08:16:50.059Z,92.90
2023-02-14T08:19:18.404Z,93.00
2023-02-14T08:21:48.059Z,92.70
2023-02-14T08:24:16.513Z,92.70
2023-02-14T08:26:47.527Z,92.70
2023-02-14T08:29:16.913Z,92.70
2023-02-14T08:31:45.337Z,92.80
2023-02-14T08:34:13.735Z,92.70
2023-02-14T08:36:42.052Z,92.90
2023-02-14T08:39:11.747Z,92.80
2023-02-14T08:41:40.113Z,92.70
2023-02-14T08:44:08.541Z,92.80
2023-02-14T08:46:37.351Z,92.70
2023-02-14T08:49:06.099Z,92.70
2023-02-14T08:51:34.462Z,92.70
2023-02-14T08:54:02.817Z,92.70
2023-02-14T08:56:33.047Z,92.50
2023-02-14T08:59:01.501Z,92.50
2023-02-14T09:01:29.932Z,92.60
2023-02-14T09:03:58.499Z,92.60
2023-02-14T09:06:26.858Z,92.80
2023-02-14T09:08:55.283Z,93.00
2023-02-14T09:11:24.639Z,92.60
2023-02-14T09:13:54.461Z,92.60
2023-02-14T09:16:23.154Z,92.40
2023-02-14T09:18:52.645Z,92.50
2023-02-14T09:21:22.119Z,92.70
2023-02-14T09:23:50.598Z,92.50
2023-02-14T09:26:18.953Z,92.90
2023-02-14T09:28:48.151Z,93.10
2023-02-14T09:31:19.045Z,92.80
2023-02-14T09:34:05.671Z,93.60
2023-02-14T09:36:51.564Z,94.40
2023-02-14T09:39:19.943Z,94.60
2023-02-14T09:42:08.572Z,94.70
2023-02-14T09:44:38.545Z,94.40
2023-02-14T09:47:12.470Z,94.50
2023-02-14T09:49:40.928Z,94.70
2023-02-14T09:52:11.876Z,94.10
2023-02-14T09:54:40.542Z,94.30
2023-02-14T09:57:11.813Z,94.10
2023-02-14T09:59:43.631Z,93.80
2023-02-14T10:02:26.316Z,93.60
2023-02-14T10:04:58.734Z,93.60
2023-02-14T10:07:28.605Z,93.60
2023-02-14T10:09:58.864Z,93.80
2023-02-14T10:12:29.290Z,93.50
2023-02-14T10:14:58.541Z,93.40
2023-02-14T10:17:32.411Z,93.40
2023-02-14T10:20:02.404Z,93.30
2023-02-14T10:22:34.166Z,93.20
2023-02-14T10:25:04.664Z,93.30
2023-02-14T10:27:34.551Z,93.30
2023-02-14T10:30:03.519Z,93.20
2023-02-14T10:32:36.413Z,93.10
2023-02-14T10:35:06.979Z,93.00
2023-02-14T10:37:46.841Z,93.00
2023-02-14T10:40:30.107Z,92.90
2023-02-14T10:43:00.450Z,93.00
2023-02-14T10:45:32.145Z,93.10
2023-02-14T10:48:04.018Z,93.00
2023-02-14T10:50:35.536Z,93.00
2023-02-14T10:53:08.557Z,92.90
2023-02-14T10:55:44.097Z,92.90
2023-02-14T10:58:14.479Z,92.90
2023-02-14T11:00:54.049Z,92.80
2023-02-14T11:03:23.882Z,92.70
2023-02-14T11:05:52.253Z,92.80
2023-02-14T11:08:25.452Z,92.80
2023-02-14T11:10:54.069Z,92.80
2023-02-14T11:13:33.187Z,92.70
2023-02-14T11:16:03.355Z,92.70
2023-02-14T11:18:35.825Z,92.70
2023-02-14T11:21:09.711Z,92.60
2023-02-14T11:23:39.940Z,92.60
2023-02-14T11:26:22.400Z,92.70
2023-02-14T11:28:54.028Z,92.60
2023-02-14T11:31:30.286Z,92.60
2023-02-14T11:34:00.342Z,92.70
2023-02-14T11:36:28.951Z,92.70
2023-02-14T11:38:59.034Z,92.80
2023-02-14T11:41:27.368Z,92.80
2023-02-14T11:43:55.684Z,92.80
2023-02-14T11:46:27.759Z,92.80
2023-02-14T11:48:57.913Z,92.70
2023-02-14T11:51:32.223Z,92.70
2023-02-14T11:54:04.752Z,92.60
2023-02-14T11:56:49.909Z,92.70
2023-02-14T11:59:29.090Z,92.70
2023-02-14T12:01:58.902Z,92.70
2023-02-14T12:04:32.801Z,92.70
2023-02-14T12:07:18.986Z,92.70
2023-02-14T12:09:47.788Z,92.70
2023-02-14T12:12:20.874Z,92.70
2023-02-14T12:14:49.260Z,92.70
2023-02-14T12:17:26.813Z,92.70
2023-02-14T12:19:56.614Z,92.70
2023-02-14T12:22:28.903Z,92.70
2023-02-14T12:25:00.563Z,92.70
2023-02-14T12:27:30.840Z,92.60
2023-02-14T12:30:02.014Z,92.80
2023-02-14T12:32:31.510Z,92.70
2023-02-14T12:35:03.198Z,92.70
2023-02-14T12:37:38.720Z,92.60
2023-02-14T12:40:14.158Z,92.60
2023-02-14T12:43:00.710Z,92.50
2023-02-14T12:45:37.151Z,92.50
2023-02-14T12:48:10.133Z,92.50
2023-02-14T12:50:42.462Z,92.40
2023-02-14T12:53:28.719Z,92.40
2023-02-14T12:56:02.386Z,92.50
2023-02-14T12:58:38.236Z,92.50
2023-02-14T13:01:21.775Z,92.40
2023-02-14T13:04:30.507Z,92.40
2023-02-14T13:07:01.444Z,92.50
2023-02-14T13:09:35.867Z,92.50
2023-02-14T13:12:11.469Z,92.50
2023-02-14T13:14:51.443Z,92.40
2023-02-14T13:17:23.485Z,92.40
2023-02-14T13:19:55.003Z,92.30
2023-02-14T13:22:23.955Z,92.40
2023-02-14T13:24:56.485Z,92.30
2023-02-14T13:27:27.765Z,92.30
2023-02-14T13:29:57.715Z,92.30
2023-02-14T13:32:28.407Z,92.40
2023-02-14T13:34:56.772Z,92.30
2023-02-14T13:37:27.245Z,92.20
2023-02-14T13:39:58.152Z,92.30
2023-02-14T13:42:52.177Z,92.30
2023-02-14T13:45:55.260Z,92.30
2023-02-14T13:48:24.583Z,92.40
2023-02-14T13:50:54.825Z,92.30
2023-02-14T13:53:41.194Z,92.40
2023-02-14T13:56:33.736Z,92.40
2023-02-14T13:59:04.501Z,92.30
2023-02-14T14:01:38.884Z,92.40
2023-02-14T14:04:08.433Z,92.40
2023-02-14T14:07:15.954Z,92.50
2023-02-14T14:10:00.402Z,92.50
2023-02-14T14:12:43.273Z,92.40
2023-02-14T14:15:13.532Z,92.30
2023-02-14T14:17:45.515Z,92.30
2023-02-14T14:20:45.916Z,92.20
2023-02-14T14:23:31.872Z,92.20
2023-02-14T14:26:01.108Z,92.10
2023-02-14T14:28:32.693Z,92.20
2023-02-14T14:31:01.061Z,92.10
2023-02-14T14:33:30.423Z,92.20
2023-02-14T14:36:00.151Z,92.20
2023-02-14T14:38:28.731Z,92.20
2023-02-14T14:40:57.072Z,92.20
2023-02-14T14:43:30.482Z,92.10
2023-02-14T14:45:59.622Z,92.10
2023-02-14T14:48:30.754Z,92.20
2023-02-14T14:50:59.418Z,92.10
2023-02-14T14:53:29.206Z,92.10
2023-02-14T14:55:57.585Z,92.20
2023-02-14T14:58:38.195Z,92.20
2023-02-14T15:01:07.466Z,92.20
2023-02-14T15:03:35.882Z,92.10
2023-02-14T15:06:07.237Z,92.30
2023-02-14T15:08:35.607Z,92.20
2023-02-14T15:11:07.313Z,92.20
2023-02-14T15:13:50.647Z,92.20
2023-02-14T15:16:23.369Z,92.30
2023-02-14T15:18:52.014Z,92.20
2023-02-14T15:21:20.337Z,92.30
2023-02-14T15:23:48.798Z,92.20
2023-02-14T15:26:18.765Z,92.20
2023-02-14T15:28:54.623Z,92.30
2023-02-14T15:31:23.108Z,92.10
2023-02-14T15:33:51.527Z,92.10
2023-02-14T15:36:21.352Z,92.10
2023-02-14T15:38:49.715Z,92.20
2023-02-14T15:41:20.000Z,92.20
2023-02-14T15:43:53.831Z,92.20
2023-02-14T15:46:29.943Z,92.10
2023-02-14T15:49:00.750Z,92.10
2023-02-14T15:51:30.387Z,92.20
2023-02-14T15:53:59.434Z,92.20
2023-02-14T15:56:29.018Z,92.20
2023-02-14T15:59:03.357Z,92.00
2023-02-14T16:01:32.002Z,92.20
2023-02-14T16:04:01.409Z,92.20
2023-02-14T16:06:35.037Z,92.60
2023-02-14T16:09:03.818Z,92.30
2023-02-14T16:11:35.291Z,92.10
2023-02-14T16:14:25.972Z,92.20
2023-02-14T16:16:58.093Z,92.20
2023-02-14T16:19:33.703Z,92.20
2023-02-14T16:22:02.060Z,92.20
2023-02-14T16:24:30.578Z,92.30
2023-02-14T16:27:00.440Z,92.30
2023-02-14T16:29:30.088Z,92.40
2023-02-14T16:32:15.798Z,92.60
2023-02-14T16:34:47.163Z,92.40
2023-02-14T16:37:22.414Z,92.60
2023-02-14T16:39:51.232Z,92.70
2023-02-14T16:42:19.589Z,92.60
2023-02-14T16:44:49.422Z,92.60
2023-02-14T16:47:18.549Z,92.60
2023-02-14T16:49:46.902Z,92.60
2023-02-14T16:52:16.234Z,92.60
2023-02-14T16:54:44.720Z,92.70
2023-02-14T16:57:17.478Z,92.60
2023-02-14T16:59:45.840Z,92.60
2023-02-14T17:02:16.318Z,92.60
2023-02-14T17:04:44.828Z,92.70
2023-02-14T17:07:13.422Z,92.70
2023-02-14T17:09:44.663Z,92.60
2023-02-14T17:12:16.398Z,92.60
2023-02-14T17:14:45.670Z,92.80
2023-02-14T17:17:15.336Z,92.80
2023-02-14T17:19:43.656Z,93.20
2023-02-14T17:22:13.486Z,93.40
2023-02-14T17:24:42.040Z,93.30
2023-02-14T17:27:10.410Z,93.30
2023-02-14T17:29:38.740Z,93.40
2023-02-14T17:32:07.194Z,93.80
2023-02-14T17:34:36.954Z,93.50
2023-02-14T17:37:05.351Z,93.50
2023-02-14T17:39:33.782Z,93.50
2023-02-14T17:42:02.162Z,93.40
2023-02-14T17:44:32.487Z,93.30
2023-02-14T17:47:00.891Z,93.30
2023-02-14T17:49:29.364Z,93.30
2023-02-14T17:51:59.081Z,93.50
2023-02-14T17:54:27.510Z,93.30
2023-02-14T17:56:55.945Z,93.40
2023-02-14T17:59:24.395Z,93.40
2023-02-14T18:01:52.730Z,93.30
2023-02-14T18:04:21.038Z,93.40
2023-02-14T18:06:49.420Z,93.40
2023-02-14T18:09:20.297Z,93.50
2023-02-14T18:11:49.954Z,93.50
2023-02-14T18:14:18.284Z,93.50
2023-02-14T18:16:46.733Z,93.50
2023-02-14T18:19:15.769Z,93.40
2023-02-14T18:21:44.893Z,93.60
2023-02-14T18:24:15.139Z,93.50
2023-02-14T18:26:44.912Z,93.60
2023-02-14T18:29:13.411Z,93.50
2023-02-14T18:31:42.951Z,93.40
2023-02-14T18:34:11.449Z,93.70
2023-02-14T18:36:40.919Z,93.50
2023-02-14T18:39:09.498Z,93.60
2023-02-14T18:41:37.964Z,93.50
2023-02-14T18:44:07.972Z,93.50
2023-02-14T18:46:36.638Z,93.50
2023-02-14T18:49:05.915Z,93.70
2023-02-14T18:51:35.112Z,93.50
2023-02-14T18:54:04.431Z,93.40
2023-02-14T18:56:33.701Z,93.20
2023-02-14T18:59:03.181Z,93.40
2023-02-14T19:01:33.805Z,93.30
2023-02-14T19:04:02.315Z,93.40
2023-02-14T19:06:31.467Z,93.60
2023-02-14T19:09:00.003Z,93.40
2023-02-14T19:11:31.307Z,93.50
2023-02-14T19:14:00.706Z,93.40
2023-02-14T19:16:29.934Z,93.60
2023-02-14T19:18:59.833Z,93.50
2023-02-14T19:21:30.472Z,93.50
2023-02-14T19:23:58.999Z,93.40
2023-02-14T19:26:29.104Z,93.30
2023-02-14T19:28:58.848Z,93.20
2023-02-14T19:31:27.475Z,93.40
2023-02-14T19:33:55.864Z,93.50
2023-02-14T19:36:25.623Z,93.40
2023-02-14T19:38:54.216Z,93.50
2023-02-14T19:41:23.608Z,93.50
2023-02-14T19:43:52.560Z,93.60
2023-02-14T19:46:21.455Z,93.50
2023-02-14T19:48:49.882Z,93.60
2023-02-14T19:51:19.684Z,93.50
2023-02-14T19:53:49.722Z,93.60
2023-02-14T19:56:19.943Z,93.50
2023-02-14T19:58:48.504Z,93.70
2023-02-14T20:01:23.446Z,93.70
2023-02-14T20:03:52.351Z,93.70
2023-02-14T20:06:21.298Z,93.80
2023-02-14T20:08:51.018Z,93.80
2023-02-14T20:11:25.832Z,93.70
2023-02-14T20:13:55.078Z,93.70
2023-02-14T20:16:23.463Z,93.80
2023-02-14T20:18:51.902Z,93.80
2023-02-14T20:21:24.086Z,93.80
2023-02-14T20:23:53.747Z,93.80
2023-02-14T20:26:22.048Z,93.70
2023-02-14T20:28:50.885Z,93.90
2023-02-14T20:31:20.099Z,93.80
2023-02-14T20:33:50.464Z,93.80
2023-02-14T20:36:18.830Z,93.80
2023-02-14T20:38:47.141Z,93.80
2023-02-14T20:41:17.461Z,93.90
2023-02-14T20:43:45.845Z,93.90
2023-02-14T20:46:14.327Z,93.80
2023-02-14T20:48:42.704Z,93.90
2023-02-14T20:51:12.248Z,93.90
2023-02-14T20:53:40.691Z,93.90
2023-02-14T20:56:09.120Z,93.80
2023-02-14T20:58:39.022Z,93.80
2023-02-14T21:01:08.177Z,93.70
2023-02-14T21:03:37.222Z,93.70
2023-02-14T21:06:06.593Z,93.90
2023-02-14T21:08:34.960Z,93.90
2023-02-14T21:11:03.583Z,93.90
2023-02-14T21:13:32.047Z,93.90
2023-02-14T21:16:04.060Z,94.10
2023-02-14T21:18:33.171Z,94.10
2023-02-14T21:21:05.810Z,94.00
2023-02-14T21:23:34.180Z,93.90
2023-02-14T21:26:02.506Z,94.00
2023-02-14T21:28:30.924Z,93.90
2023-02-14T21:31:06.937Z,93.90
2023-02-14T21:33:35.484Z,93.90
2023-02-14T21:36:07.509Z,94.10
2023-02-14T21:38:35.988Z,94.10
2023-02-14T21:41:05.083Z,94.00
2023-02-14T21:43:34.787Z,93.90
2023-02-14T21:46:05.010Z,94.00
2023-02-14T21:48:52.946Z,94.10
2023-02-14T21:51:21.509Z,94.00
2023-02-14T21:53:50.142Z,94.10
2023-02-14T21:56:19.753Z,94.20
2023-02-14T21:58:48.473Z,94.10
2023-02-14T22:01:17.503Z,93.90
2023-02-14T22:03:47.219Z,93.90
2023-02-14T22:06:15.648Z,94.20
2023-02-14T22:08:44.032Z,94.30
2023-02-14T22:11:13.601Z,94.50
2023-02-14T22:13:42.167Z,94.30
2023-02-14T22:16:11.484Z,94.40
2023-02-14T22:18:40.033Z,94.40
2023-02-14T22:21:10.821Z,94.30
2023-02-14T22:23:39.295Z,94.30
2023-02-14T22:26:11.625Z,94.30
2023-02-14T22:28:40.095Z,94.30
2023-02-14T22:31:08.740Z,94.30
2023-02-14T22:33:37.994Z,94.20
2023-02-14T22:36:07.046Z,94.30
2023-02-14T22:38:36.838Z,94.30
2023-02-14T22:41:06.234Z,94.40
2023-02-14T22:43:34.837Z,94.40
2023-02-14T22:46:04.782Z,94.50
2023-02-14T22:48:33.652Z,94.50
2023-02-14T22:51:09.263Z,94.40
2023-02-14T22:53:39.020Z,94.40
2023-02-14T22:56:11.924Z,94.40
2023-02-14T22:58:40.312Z,94.40
2023-02-14T23:01:13.318Z,94.40
2023-02-14T23:03:41.757Z,94.40
2023-02-14T23:06:10.471Z,94.40
2023-02-14T23:08:41.267Z,94.50
2023-02-14T23:11:10.243Z,94.40
2023-02-14T23:13:56.223Z,94.30
2023-02-14T23:16:53.800Z,94.30
2023-02-14T23:19:40.327Z,94.30
2023-02-14T23:22:11.017Z,94.30
2023-02-14T23:24:40.735Z,94.40
2023-02-14T23:27:09.573Z,94.40
2023-02-14T23:29:37.959Z,94.20
2023-02-14T23:32:06.713Z,94.20
2023-02-14T23:34:35.939Z,94.40
2023-02-14T23:37:04.349Z,94.30
2023-02-14T23:39:35.723Z,94.20
2023-02-14T23:42:05.592Z,94.20
2023-02-14T23:44:34.078Z,94.10
2023-02-14T23:47:04.225Z,94.30
2023-02-14T23:49:33.084Z,94.30
2023-02-14T23:52:01.455Z,94.30
2023-02-14T23:54:29.832Z,94.30
2023-02-14T23:56:58.697Z,94.30
2023-02-14T23:59:28.510Z,94.30
